sensor_id;sensor_type;location;lat;lon;timestamp;P1;P2;P0
44871;PMS7003;30602;51.060;17.226;2024-03-22T00:00:13;24;21;13
44871;PMS7003;30602;51.060;17.226;2024-03-22T00:03:35;23;22;14
44871;PMS7003;30602;51.060;17.226;2024-03-22T00:06:52;20;18;11
44871;PMS7003;30602;51.060;17.226;2024-03-22T00:10:12;25;22;16
44871;PMS7003;30602;51.060;17.226;2024-03-22T00:13:35;26;23;15
44871;PMS7003;30602;51.060;17.226;2024-03-22T00:16:56;24;23;15
44871;PMS7003;30602;51.060;17.226;2024-03-22T00:20:18;21;20;13
44871;PMS7003;30602;51.060;17.226;2024-03-22T00:23:40;21;18;12
44871;PMS7003;30602;51.060;17.226;2024-03-22T00:27:04;23;20;13
44871;PMS7003;30602;51.060;17.226;2024-03-22T00:30:24;21;20;14
44871;PMS7003;30602;51.060;17.226;2024-03-22T00:33:43;20;17;12
44871;PMS7003;30602;51.060;17.226;2024-03-22T00:37:04;19;19;14
44871;PMS7003;30602;51.060;17.226;2024-03-22T00:40:23;21;21;12
44871;PMS7003;30602;51.060;17.226;2024-03-22T00:43:43;23;20;14
44871;PMS7003;30602;51.060;17.226;2024-03-22T00:47:03;23;17;12
44871;PMS7003;30602;51.060;17.226;2024-03-22T00:50:26;24;23;14
44871;PMS7003;30602;51.060;17.226;2024-03-22T00:53:51;22;22;14
44871;PMS7003;30602;51.060;17.226;2024-03-22T00:57:12;29;21;13
44871;PMS7003;30602;51.060;17.226;2024-03-22T01:00:34;20;17;10
44871;PMS7003;30602;51.060;17.226;2024-03-22T01:03:55;18;15;11
44871;PMS7003;30602;51.060;17.226;2024-03-22T01:07:16;19;16;11
44871;PMS7003;30602;51.060;17.226;2024-03-22T01:10:33;18;16;9
44871;PMS7003;30602;51.060;17.226;2024-03-22T01:13:53;17;14;8
44871;PMS7003;30602;51.060;17.226;2024-03-22T01:17:10;15;13;9
44871;PMS7003;30602;51.060;17.226;2024-03-22T01:20:32;14;11;7
44871;PMS7003;30602;51.060;17.226;2024-03-22T01:23:55;14;12;6
44871;PMS7003;30602;51.060;17.226;2024-03-22T01:27:16;17;14;8
44871;PMS7003;30602;51.060;17.226;2024-03-22T01:30:36;15;11;7
44871;PMS7003;30602;51.060;17.226;2024-03-22T01:33:59;13;12;6
44871;PMS7003;30602;51.060;17.226;2024-03-22T01:37:20;13;11;7
44871;PMS7003;30602;51.060;17.226;2024-03-22T01:40:41;12;10;6
44871;PMS7003;30602;51.060;17.226;2024-03-22T01:44:01;13;11;7
44871;PMS7003;30602;51.060;17.226;2024-03-22T01:47:21;13;11;6
44871;PMS7003;30602;51.060;17.226;2024-03-22T01:50:43;13;12;7
44871;PMS7003;30602;51.060;17.226;2024-03-22T01:54:05;12;8;4
44871;PMS7003;30602;51.060;17.226;2024-03-22T01:57:28;9;8;6
44871;PMS7003;30602;51.060;17.226;2024-03-22T02:00:46;9;8;6
44871;PMS7003;30602;51.060;17.226;2024-03-22T02:04:06;10;7;5
44871;PMS7003;30602;51.060;17.226;2024-03-22T02:07:30;10;7;5
44871;PMS7003;30602;51.060;17.226;2024-03-22T02:10:52;9;8;5
44871;PMS7003;30602;51.060;17.226;2024-03-22T02:14:12;9;8;5
44871;PMS7003;30602;51.060;17.226;2024-03-22T02:17:33;10;8;5
44871;PMS7003;30602;51.060;17.226;2024-03-22T02:20:56;9;9;6
44871;PMS7003;30602;51.060;17.226;2024-03-22T02:24:14;10;9;5
44871;PMS7003;30602;51.060;17.226;2024-03-22T02:27:36;8;8;6
44871;PMS7003;30602;51.060;17.226;2024-03-22T02:30:58;11;7;5
44871;PMS7003;30602;51.060;17.226;2024-03-22T02:34:16;11;8;4
44871;PMS7003;30602;51.060;17.226;2024-03-22T02:37:34;13;11;6
44871;PMS7003;30602;51.060;17.226;2024-03-22T02:40:53;14;8;5
44871;PMS7003;30602;51.060;17.226;2024-03-22T02:44:13;13;10;7
44871;PMS7003;30602;51.060;17.226;2024-03-22T02:47:36;14;10;6
44871;PMS7003;30602;51.060;17.226;2024-03-22T02:50:57;12;12;7
44871;PMS7003;30602;51.060;17.226;2024-03-22T02:54:18;12;10;5
44871;PMS7003;30602;51.060;17.226;2024-03-22T02:57:41;10;9;6
44871;PMS7003;30602;51.060;17.226;2024-03-22T03:01:04;13;9;7
44871;PMS7003;30602;51.060;17.226;2024-03-22T03:04:25;9;9;5
44871;PMS7003;30602;51.060;17.226;2024-03-22T03:07:46;14;11;7
44871;PMS7003;30602;51.060;17.226;2024-03-22T03:11:41;14;12;8
44871;PMS7003;30602;51.060;17.226;2024-03-22T03:15:02;13;12;8
44871;PMS7003;30602;51.060;17.226;2024-03-22T03:18:27;14;10;7
44871;PMS7003;30602;51.060;17.226;2024-03-22T03:22:20;15;10;8
44871;PMS7003;30602;51.060;17.226;2024-03-22T03:25:39;15;11;7
44871;PMS7003;30602;51.060;17.226;2024-03-22T03:29:00;12;12;7
44871;PMS7003;30602;51.060;17.226;2024-03-22T03:32:18;18;14;8
44871;PMS7003;30602;51.060;17.226;2024-03-22T03:35:44;16;11;7
44871;PMS7003;30602;51.060;17.226;2024-03-22T03:39:06;14;11;7
44871;PMS7003;30602;51.060;17.226;2024-03-22T03:42:59;17;14;9
44871;PMS7003;30602;51.060;17.226;2024-03-22T03:46:22;17;15;9
44871;PMS7003;30602;51.060;17.226;2024-03-22T03:49:45;18;16;11
44871;PMS7003;30602;51.060;17.226;2024-03-22T03:53:09;21;19;10
44871;PMS7003;30602;51.060;17.226;2024-03-22T03:56:33;20;16;9
44871;PMS7003;30602;51.060;17.226;2024-03-22T04:00:00;21;19;10
44871;PMS7003;30602;51.060;17.226;2024-03-22T04:03:24;26;22;10
44871;PMS7003;30602;51.060;17.226;2024-03-22T04:06:47;22;18;12
44871;PMS7003;30602;51.060;17.226;2024-03-22T04:10:10;22;18;10
44871;PMS7003;30602;51.060;17.226;2024-03-22T04:13:31;17;15;10
44871;PMS7003;30602;51.060;17.226;2024-03-22T04:16:55;22;19;13
44871;PMS7003;30602;51.060;17.226;2024-03-22T04:20:13;24;21;12
44871;PMS7003;30602;51.060;17.226;2024-03-22T04:23:33;26;20;12
44871;PMS7003;30602;51.060;17.226;2024-03-22T04:26:53;29;22;11
44871;PMS7003;30602;51.060;17.226;2024-03-22T04:30:11;22;20;9
44871;PMS7003;30602;51.060;17.226;2024-03-22T04:33:36;26;23;12
44871;PMS7003;30602;51.060;17.226;2024-03-22T04:36:59;24;21;12
44871;PMS7003;30602;51.060;17.226;2024-03-22T04:40:22;22;20;10
44871;PMS7003;30602;51.060;17.226;2024-03-22T04:43:42;23;19;11
44871;PMS7003;30602;51.060;17.226;2024-03-22T04:47:05;26;19;11
44871;PMS7003;30602;51.060;17.226;2024-03-22T04:50:28;22;19;11
44871;PMS7003;30602;51.060;17.226;2024-03-22T04:53:51;26;21;12
44871;PMS7003;30602;51.060;17.226;2024-03-22T04:57:12;19;17;11
44871;PMS7003;30602;51.060;17.226;2024-03-22T05:00:32;20;17;9
44871;PMS7003;30602;51.060;17.226;2024-03-22T05:03:52;19;18;11
44871;PMS7003;30602;51.060;17.226;2024-03-22T05:07:13;18;18;9
44871;PMS7003;30602;51.060;17.226;2024-03-22T05:10:31;17;16;10
44871;PMS7003;30602;51.060;17.226;2024-03-22T05:13:53;21;17;10
44871;PMS7003;30602;51.060;17.226;2024-03-22T05:17:18;20;15;8
44871;PMS7003;30602;51.060;17.226;2024-03-22T05:20:39;15;13;7
44871;PMS7003;30602;51.060;17.226;2024-03-22T05:24:01;18;17;10
44871;PMS7003;30602;51.060;17.226;2024-03-22T05:27:22;20;17;9
44871;PMS7003;30602;51.060;17.226;2024-03-22T05:30:40;15;15;8
44871;PMS7003;30602;51.060;17.226;2024-03-22T05:33:58;20;17;10
44871;PMS7003;30602;51.060;17.226;2024-03-22T05:37:20;19;17;11
44871;PMS7003;30602;51.060;17.226;2024-03-22T05:40:44;18;16;10
44871;PMS7003;30602;51.060;17.226;2024-03-22T05:44:06;24;21;12
44871;PMS7003;30602;51.060;17.226;2024-03-22T05:47:24;21;17;11
44871;PMS7003;30602;51.060;17.226;2024-03-22T05:50:50;48;40;22
44871;PMS7003;30602;51.060;17.226;2024-03-22T05:54:11;26;23;15
44871;PMS7003;30602;51.060;17.226;2024-03-22T05:57:42;20;17;9
44871;PMS7003;30602;51.060;17.226;2024-03-22T06:01:02;11;10;6
44871;PMS7003;30602;51.060;17.226;2024-03-22T06:04:27;20;14;8
44871;PMS7003;30602;51.060;17.226;2024-03-22T06:07:47;16;15;9
44871;PMS7003;30602;51.060;17.226;2024-03-22T06:11:07;16;13;7
44871;PMS7003;30602;51.060;17.226;2024-03-22T06:14:30;17;15;8
44871;PMS7003;30602;51.060;17.226;2024-03-22T06:17:54;22;18;10
44871;PMS7003;30602;51.060;17.226;2024-03-22T06:21:16;22;18;10
44871;PMS7003;30602;51.060;17.226;2024-03-22T06:24:47;16;15;10
44871;PMS7003;30602;51.060;17.226;2024-03-22T06:28:07;21;17;10
44871;PMS7003;30602;51.060;17.226;2024-03-22T06:31:27;21;19;12
44871;PMS7003;30602;51.060;17.226;2024-03-22T06:34:49;16;16;9
44871;PMS7003;30602;51.060;17.226;2024-03-22T06:38:06;19;17;10
44871;PMS7003;30602;51.060;17.226;2024-03-22T06:41:29;21;17;10
44871;PMS7003;30602;51.060;17.226;2024-03-22T06:44:55;25;22;11
44871;PMS7003;30602;51.060;17.226;2024-03-22T06:48:14;17;16;9
44871;PMS7003;30602;51.060;17.226;2024-03-22T06:51:37;22;17;9
44871;PMS7003;30602;51.060;17.226;2024-03-22T06:55:05;21;19;10
44871;PMS7003;30602;51.060;17.226;2024-03-22T06:58:25;17;17;10
44871;PMS7003;30602;51.060;17.226;2024-03-22T07:01:49;23;16;9
44871;PMS7003;30602;51.060;17.226;2024-03-22T07:05:13;22;20;10
44871;PMS7003;30602;51.060;17.226;2024-03-22T07:08:34;21;19;10
44871;PMS7003;30602;51.060;17.226;2024-03-22T07:11:54;18;15;10
44871;PMS7003;30602;51.060;17.226;2024-03-22T07:15:15;21;16;9
44871;PMS7003;30602;51.060;17.226;2024-03-22T07:18:33;20;14;10
44871;PMS7003;30602;51.060;17.226;2024-03-22T07:21:57;22;18;10
44871;PMS7003;30602;51.060;17.226;2024-03-22T07:25:20;20;16;10
44871;PMS7003;30602;51.060;17.226;2024-03-22T07:28:42;22;17;11
44871;PMS7003;30602;51.060;17.226;2024-03-22T07:32:02;19;17;9
44871;PMS7003;30602;51.060;17.226;2024-03-22T07:35:31;23;21;11
44871;PMS7003;30602;51.060;17.226;2024-03-22T07:38:51;19;16;10
44871;PMS7003;30602;51.060;17.226;2024-03-22T07:42:13;17;14;9
44871;PMS7003;30602;51.060;17.226;2024-03-22T07:45:32;21;16;9
44871;PMS7003;30602;51.060;17.226;2024-03-22T07:48:54;13;13;9
44871;PMS7003;30602;51.060;17.226;2024-03-22T07:52:13;21;19;11
44871;PMS7003;30602;51.060;17.226;2024-03-22T07:55:30;18;15;7
44871;PMS7003;30602;51.060;17.226;2024-03-22T07:58:50;19;17;8
44871;PMS7003;30602;51.060;17.226;2024-03-22T08:02:09;25;19;11
44871;PMS7003;30602;51.060;17.226;2024-03-22T08:05:31;23;16;9
44871;PMS7003;30602;51.060;17.226;2024-03-22T08:08:49;16;15;10
44871;PMS7003;30602;51.060;17.226;2024-03-22T08:12:10;17;16;11
44871;PMS7003;30602;51.060;17.226;2024-03-22T08:15:37;17;16;9
44871;PMS7003;30602;51.060;17.226;2024-03-22T08:18:59;20;18;10
44871;PMS7003;30602;51.060;17.226;2024-03-22T08:22:23;18;14;9
44871;PMS7003;30602;51.060;17.226;2024-03-22T08:25:44;17;13;10
44871;PMS7003;30602;51.060;17.226;2024-03-22T08:29:05;18;16;9
44871;PMS7003;30602;51.060;17.226;2024-03-22T08:32:27;21;16;10
44871;PMS7003;30602;51.060;17.226;2024-03-22T08:35:50;26;19;9
44871;PMS7003;30602;51.060;17.226;2024-03-22T08:39:12;17;16;9
44871;PMS7003;30602;51.060;17.226;2024-03-22T08:42:37;20;17;11
44871;PMS7003;30602;51.060;17.226;2024-03-22T08:46:00;17;15;10
44871;PMS7003;30602;51.060;17.226;2024-03-22T08:49:22;15;15;7
44871;PMS7003;30602;51.060;17.226;2024-03-22T08:52:43;13;13;8
44871;PMS7003;30602;51.060;17.226;2024-03-22T08:56:09;19;17;9
44871;PMS7003;30602;51.060;17.226;2024-03-22T08:59:32;17;15;8
44871;PMS7003;30602;51.060;17.226;2024-03-22T09:02:58;34;26;12
44871;PMS7003;30602;51.060;17.226;2024-03-22T09:06:19;17;15;8
44871;PMS7003;30602;51.060;17.226;2024-03-22T09:09:41;21;17;11
44871;PMS7003;30602;51.060;17.226;2024-03-22T09:13:02;26;21;11
44871;PMS7003;30602;51.060;17.226;2024-03-22T09:16:23;20;18;9
44871;PMS7003;30602;51.060;17.226;2024-03-22T09:19:46;26;24;13
44871;PMS7003;30602;51.060;17.226;2024-03-22T09:23:14;22;20;10
44871;PMS7003;30602;51.060;17.226;2024-03-22T09:26:39;23;19;9
44871;PMS7003;30602;51.060;17.226;2024-03-22T09:30:01;20;19;10
44871;PMS7003;30602;51.060;17.226;2024-03-22T09:33:25;16;13;9
44871;PMS7003;30602;51.060;17.226;2024-03-22T09:36:52;17;16;10
44871;PMS7003;30602;51.060;17.226;2024-03-22T09:40:16;21;19;11
44871;PMS7003;30602;51.060;17.226;2024-03-22T09:43:37;29;22;11
44871;PMS7003;30602;51.060;17.226;2024-03-22T09:46:56;16;15;8
44871;PMS7003;30602;51.060;17.226;2024-03-22T09:50:18;22;21;12
44871;PMS7003;30602;51.060;17.226;2024-03-22T09:53:45;21;18;11
44871;PMS7003;30602;51.060;17.226;2024-03-22T09:57:15;23;19;12
44871;PMS7003;30602;51.060;17.226;2024-03-22T10:00:35;20;16;10
44871;PMS7003;30602;51.060;17.226;2024-03-22T10:03:57;20;17;11
44871;PMS7003;30602;51.060;17.226;2024-03-22T10:07:18;24;20;12
44871;PMS7003;30602;51.060;17.226;2024-03-22T10:10:41;26;23;12
44871;PMS7003;30602;51.060;17.226;2024-03-22T10:14:10;21;19;11
44871;PMS7003;30602;51.060;17.226;2024-03-22T10:17:32;20;17;10
44871;PMS7003;30602;51.060;17.226;2024-03-22T10:21:02;23;20;12
44871;PMS7003;30602;51.060;17.226;2024-03-22T10:24:32;19;17;9
44871;PMS7003;30602;51.060;17.226;2024-03-22T10:27:50;18;15;9
44871;PMS7003;30602;51.060;17.226;2024-03-22T10:31:11;13;12;8
44871;PMS7003;30602;51.060;17.226;2024-03-22T10:34:32;19;16;11
44871;PMS7003;30602;51.060;17.226;2024-03-22T10:38:02;19;16;9
44871;PMS7003;30602;51.060;17.226;2024-03-22T10:41:21;21;19;10
44871;PMS7003;30602;51.060;17.226;2024-03-22T10:45:11;19;15;9
44871;PMS7003;30602;51.060;17.226;2024-03-22T10:48:34;22;20;11
44871;PMS7003;30602;51.060;17.226;2024-03-22T10:52:02;17;15;9
44871;PMS7003;30602;51.060;17.226;2024-03-22T10:55:32;15;14;9
44871;PMS7003;30602;51.060;17.226;2024-03-22T10:59:02;17;14;8
44871;PMS7003;30602;51.060;17.226;2024-03-22T11:02:27;15;13;9
44871;PMS7003;30602;51.060;17.226;2024-03-22T11:05:53;18;13;9
44871;PMS7003;30602;51.060;17.226;2024-03-22T11:09:21;22;18;11
44871;PMS7003;30602;51.060;17.226;2024-03-22T11:12:45;15;13;7
44871;PMS7003;30602;51.060;17.226;2024-03-22T11:16:11;25;21;12
44871;PMS7003;30602;51.060;17.226;2024-03-22T11:19:34;19;15;9
44871;PMS7003;30602;51.060;17.226;2024-03-22T11:23:27;21;18;11
44871;PMS7003;30602;51.060;17.226;2024-03-22T11:26:49;18;13;8
44871;PMS7003;30602;51.060;17.226;2024-03-22T11:30:49;22;18;10
44871;PMS7003;30602;51.060;17.226;2024-03-22T11:34:08;22;17;10
44871;PMS7003;30602;51.060;17.226;2024-03-22T11:37:28;18;18;12
44871;PMS7003;30602;51.060;17.226;2024-03-22T11:40:46;20;14;9
44871;PMS7003;30602;51.060;17.226;2024-03-22T11:44:38;15;13;9
44871;PMS7003;30602;51.060;17.226;2024-03-22T11:48:01;13;11;8
44871;PMS7003;30602;51.060;17.226;2024-03-22T11:51:22;13;11;7
44871;PMS7003;30602;51.060;17.226;2024-03-22T11:54:49;14;13;8
44871;PMS7003;30602;51.060;17.226;2024-03-22T11:58:18;15;14;8
44871;PMS7003;30602;51.060;17.226;2024-03-22T12:01:43;13;11;6
44871;PMS7003;30602;51.060;17.226;2024-03-22T12:05:40;17;12;9
44871;PMS7003;30602;51.060;17.226;2024-03-22T12:09:03;16;14;8
44871;PMS7003;30602;51.060;17.226;2024-03-22T12:12:24;14;13;8
44871;PMS7003;30602;51.060;17.226;2024-03-22T12:16:15;14;13;8
44871;PMS7003;30602;51.060;17.226;2024-03-22T12:19:34;16;13;10
44871;PMS7003;30602;51.060;17.226;2024-03-22T12:22:54;16;14;9
44871;PMS7003;30602;51.060;17.226;2024-03-22T12:26:14;18;14;9
44871;PMS7003;30602;51.060;17.226;2024-03-22T12:29:35;14;12;8
44871;PMS7003;30602;51.060;17.226;2024-03-22T12:32:56;12;12;8
44871;PMS7003;30602;51.060;17.226;2024-03-22T12:36:14;14;13;8
44871;PMS7003;30602;51.060;17.226;2024-03-22T12:39:39;15;11;7
44871;PMS7003;30602;51.060;17.226;2024-03-22T12:43:01;16;13;8
44871;PMS7003;30602;51.060;17.226;2024-03-22T12:46:25;16;13;7
44871;PMS7003;30602;51.060;17.226;2024-03-22T12:49:46;12;10;8
44871;PMS7003;30602;51.060;17.226;2024-03-22T12:53:07;12;12;9
44871;PMS7003;30602;51.060;17.226;2024-03-22T12:56:32;19;16;11
44871;PMS7003;30602;51.060;17.226;2024-03-22T12:59:53;15;13;9
44871;PMS7003;30602;51.060;17.226;2024-03-22T13:03:20;23;20;13
44871;PMS7003;30602;51.060;17.226;2024-03-22T13:06:40;16;14;11
44871;PMS7003;30602;51.060;17.226;2024-03-22T13:10:02;14;12;8
44871;PMS7003;30602;51.060;17.226;2024-03-22T13:13:29;12;11;7
44871;PMS7003;30602;51.060;17.226;2024-03-22T13:16:48;12;11;7
44871;PMS7003;30602;51.060;17.226;2024-03-22T13:20:13;22;21;12
44871;PMS7003;30602;51.060;17.226;2024-03-22T13:24:16;22;18;14
44871;PMS7003;30602;51.060;17.226;2024-03-22T13:27:42;13;12;9
44871;PMS7003;30602;51.060;17.226;2024-03-22T13:31:07;23;20;12
44871;PMS7003;30602;51.060;17.226;2024-03-22T13:34:33;11;9;8
44871;PMS7003;30602;51.060;17.226;2024-03-22T13:37:54;9;9;6
44871;PMS7003;30602;51.060;17.226;2024-03-22T13:41:16;8;8;6
44871;PMS7003;30602;51.060;17.226;2024-03-22T13:44:39;14;12;8
44871;PMS7003;30602;51.060;17.226;2024-03-22T13:47:58;11;10;7
44871;PMS7003;30602;51.060;17.226;2024-03-22T13:51:25;15;12;7
44871;PMS7003;30602;51.060;17.226;2024-03-22T13:54:48;14;13;9
44871;PMS7003;30602;51.060;17.226;2024-03-22T13:58:37;16;12;9
44871;PMS7003;30602;51.060;17.226;2024-03-22T14:01:57;14;11;9
44871;PMS7003;30602;51.060;17.226;2024-03-22T14:05:49;19;17;11
44871;PMS7003;30602;51.060;17.226;2024-03-22T14:09:09;13;10;6
44871;PMS7003;30602;51.060;17.226;2024-03-22T14:13:06;13;11;8
44871;PMS7003;30602;51.060;17.226;2024-03-22T14:16:54;15;14;9
44871;PMS7003;30602;51.060;17.226;2024-03-22T14:20:12;14;12;9
44871;PMS7003;30602;51.060;17.226;2024-03-22T14:23:32;15;14;10
44871;PMS7003;30602;51.060;17.226;2024-03-22T14:26:52;18;15;10
44871;PMS7003;30602;51.060;17.226;2024-03-22T14:30:18;17;16;9
44871;PMS7003;30602;51.060;17.226;2024-03-22T14:33:41;14;13;8
44871;PMS7003;30602;51.060;17.226;2024-03-22T14:37:09;18;18;11
44871;PMS7003;30602;51.060;17.226;2024-03-22T14:40:28;14;11;9
44871;PMS7003;30602;51.060;17.226;2024-03-22T14:44:27;18;14;9
44871;PMS7003;30602;51.060;17.226;2024-03-22T14:48:26;22;18;11
44871;PMS7003;30602;51.060;17.226;2024-03-22T14:52:24;27;22;13
44871;PMS7003;30602;51.060;17.226;2024-03-22T14:59:21;21;20;13
44871;PMS7003;30602;51.060;17.226;2024-03-22T15:03:11;23;20;12
44871;PMS7003;30602;51.060;17.226;2024-03-22T15:06:34;24;20;14
44871;PMS7003;30602;51.060;17.226;2024-03-22T15:09:58;25;22;13
44871;PMS7003;30602;51.060;17.226;2024-03-22T15:13:23;20;17;10
44871;PMS7003;30602;51.060;17.226;2024-03-22T15:17:21;28;24;13
44871;PMS7003;30602;51.060;17.226;2024-03-22T15:20:44;27;24;14
44871;PMS7003;30602;51.060;17.226;2024-03-22T15:24:05;26;25;17
44871;PMS7003;30602;51.060;17.226;2024-03-22T15:28:01;33;28;16
44871;PMS7003;30602;51.060;17.226;2024-03-22T15:31:29;32;27;14
44871;PMS7003;30602;51.060;17.226;2024-03-22T15:34:52;34;27;15
44871;PMS7003;30602;51.060;17.226;2024-03-22T15:38:10;26;24;17
44871;PMS7003;30602;51.060;17.226;2024-03-22T15:41:31;29;26;17
44871;PMS7003;30602;51.060;17.226;2024-03-22T15:44:52;27;25;16
44871;PMS7003;30602;51.060;17.226;2024-03-22T15:48:51;35;29;16
44871;PMS7003;30602;51.060;17.226;2024-03-22T15:52:12;28;24;16
44871;PMS7003;30602;51.060;17.226;2024-03-22T15:56:11;37;31;17
44871;PMS7003;30602;51.060;17.226;2024-03-22T16:00:14;41;34;17
44871;PMS7003;30602;51.060;17.226;2024-03-22T16:03:38;29;25;13
44871;PMS7003;30602;51.060;17.226;2024-03-22T16:07:00;37;31;19
44871;PMS7003;30602;51.060;17.226;2024-03-22T16:10:20;36;33;17
44871;PMS7003;30602;51.060;17.226;2024-03-22T16:13:42;34;27;18
44871;PMS7003;30602;51.060;17.226;2024-03-22T16:17:02;36;30;19
44871;PMS7003;30602;51.060;17.226;2024-03-22T16:21:00;35;32;19
44871;PMS7003;30602;51.060;17.226;2024-03-22T16:24:22;38;32;17
44871;PMS7003;30602;51.060;17.226;2024-03-22T16:27:42;36;32;19
44871;PMS7003;30602;51.060;17.226;2024-03-22T16:31:05;33;30;17
44871;PMS7003;30602;51.060;17.226;2024-03-22T16:34:26;29;25;16
44871;PMS7003;30602;51.060;17.226;2024-03-22T16:37:57;32;28;18
44871;PMS7003;30602;51.060;17.226;2024-03-22T16:41:19;33;30;16
44871;PMS7003;30602;51.060;17.226;2024-03-22T16:44:44;35;31;17
44871;PMS7003;30602;51.060;17.226;2024-03-22T16:48:03;31;29;18
44871;PMS7003;30602;51.060;17.226;2024-03-22T16:51:25;32;29;19
44871;PMS7003;30602;51.060;17.226;2024-03-22T16:54:48;26;25;15
44871;PMS7003;30602;51.060;17.226;2024-03-22T16:58:52;31;25;17
44871;PMS7003;30602;51.060;17.226;2024-03-22T17:02:44;34;29;18
44871;PMS7003;30602;51.060;17.226;2024-03-22T17:06:04;29;26;17
44871;PMS7003;30602;51.060;17.226;2024-03-22T17:09:29;33;31;18
44871;PMS7003;30602;51.060;17.226;2024-03-22T17:12:52;32;28;17
44871;PMS7003;30602;51.060;17.226;2024-03-22T17:16:14;31;28;17
44871;PMS7003;30602;51.060;17.226;2024-03-22T17:19:40;31;27;17
44871;PMS7003;30602;51.060;17.226;2024-03-22T17:23:01;29;25;15
44871;PMS7003;30602;51.060;17.226;2024-03-22T17:26:50;23;21;14
44871;PMS7003;30602;51.060;17.226;2024-03-22T17:30:16;30;25;15
44871;PMS7003;30602;51.060;17.226;2024-03-22T17:33:34;28;25;15
44871;PMS7003;30602;51.060;17.226;2024-03-22T17:37:02;33;26;15
44871;PMS7003;30602;51.060;17.226;2024-03-22T17:40:24;28;24;13
44871;PMS7003;30602;51.060;17.226;2024-03-22T17:44:17;25;18;13
44871;PMS7003;30602;51.060;17.226;2024-03-22T17:48:10;25;20;14
44871;PMS7003;30602;51.060;17.226;2024-03-22T17:52:01;25;23;14
44871;PMS7003;30602;51.060;17.226;2024-03-22T17:55:57;28;23;14
44871;PMS7003;30602;51.060;17.226;2024-03-22T17:59:18;20;17;11
44871;PMS7003;30602;51.060;17.226;2024-03-22T18:02:36;21;20;13
44871;PMS7003;30602;51.060;17.226;2024-03-22T18:05:56;27;26;17
44871;PMS7003;30602;51.060;17.226;2024-03-22T18:09:20;23;20;13
44871;PMS7003;30602;51.060;17.226;2024-03-22T18:12:42;21;20;12
44871;PMS7003;30602;51.060;17.226;2024-03-22T18:16:31;15;13;9
44871;PMS7003;30602;51.060;17.226;2024-03-22T18:19:52;19;16;11
44871;PMS7003;30602;51.060;17.226;2024-03-22T18:23:16;20;17;12
44871;PMS7003;30602;51.060;17.226;2024-03-22T18:27:08;19;17;11
44871;PMS7003;30602;51.060;17.226;2024-03-22T18:30:28;17;16;10
44871;PMS7003;30602;51.060;17.226;2024-03-22T18:34:19;18;16;11
44871;PMS7003;30602;51.060;17.226;2024-03-22T18:37:44;18;16;11
44871;PMS7003;30602;51.060;17.226;2024-03-22T18:41:02;19;15;11
44871;PMS7003;30602;51.060;17.226;2024-03-22T18:44:23;20;17;11
44871;PMS7003;30602;51.060;17.226;2024-03-22T18:47:44;27;21;11
44871;PMS7003;30602;51.060;17.226;2024-03-22T18:51:06;22;17;12
44871;PMS7003;30602;51.060;17.226;2024-03-22T18:54:31;15;13;9
44871;PMS7003;30602;51.060;17.226;2024-03-22T18:57:49;25;15;11
44871;PMS7003;30602;51.060;17.226;2024-03-22T19:01:11;19;18;10
44871;PMS7003;30602;51.060;17.226;2024-03-22T19:04:36;19;17;13
44871;PMS7003;30602;51.060;17.226;2024-03-22T19:07:56;18;16;12
44871;PMS7003;30602;51.060;17.226;2024-03-22T19:11:44;19;19;12
44871;PMS7003;30602;51.060;17.226;2024-03-22T19:15:39;23;18;11
44871;PMS7003;30602;51.060;17.226;2024-03-22T19:19:05;15;15;12
44871;PMS7003;30602;51.060;17.226;2024-03-22T19:22:58;20;17;11
44871;PMS7003;30602;51.060;17.226;2024-03-22T19:26:28;22;20;12
44871;PMS7003;30602;51.060;17.226;2024-03-22T19:29:47;18;16;10
44871;PMS7003;30602;51.060;17.226;2024-03-22T19:33:08;19;17;11
44871;PMS7003;30602;51.060;17.226;2024-03-22T19:36:31;15;14;9
44871;PMS7003;30602;51.060;17.226;2024-03-22T19:39:52;22;18;12
44871;PMS7003;30602;51.060;17.226;2024-03-22T19:43:42;24;20;11
44871;PMS7003;30602;51.060;17.226;2024-03-22T19:47:10;19;15;9
44871;PMS7003;30602;51.060;17.226;2024-03-22T19:50:31;22;16;11
44871;PMS7003;30602;51.060;17.226;2024-03-22T19:53:52;19;17;11
44871;PMS7003;30602;51.060;17.226;2024-03-22T19:57:12;17;16;10
44871;PMS7003;30602;51.060;17.226;2024-03-22T20:00:38;22;19;11
44871;PMS7003;30602;51.060;17.226;2024-03-22T20:03:58;19;17;12
44871;PMS7003;30602;51.060;17.226;2024-03-22T20:07:21;20;18;10
44871;PMS7003;30602;51.060;17.226;2024-03-22T20:10:43;19;16;11
44871;PMS7003;30602;51.060;17.226;2024-03-22T20:14:34;22;19;12
44871;PMS7003;30602;51.060;17.226;2024-03-22T20:17:57;22;19;12
44871;PMS7003;30602;51.060;17.226;2024-03-22T20:21:19;27;18;12
44871;PMS7003;30602;51.060;17.226;2024-03-22T20:24:36;16;15;12
44871;PMS7003;30602;51.060;17.226;2024-03-22T20:28:01;19;18;12
44871;PMS7003;30602;51.060;17.226;2024-03-22T20:31:29;18;17;11
44871;PMS7003;30602;51.060;17.226;2024-03-22T20:34:54;19;17;12
